Time;durP1;ratioP1;P1;durP2;ratioP2;P2;SDS_P1;SDS_P2;PMS_P1;PMS_P2;Temp;Humidity;BMP_temperature;BMP_pressure;BME280_temperature;BME280_humidity;BME280_pressure;Samples;Min_cycle;Max_cycle;Signal;HPM_P1;HPM_P2
2023/01/12 00:00:42;;;;;;;26.70;7.40;;;;;;;-3.72;86.58;101446.50;123217;1107;107146;-86
2023/01/12 00:03:23;;;;;;;22.90;7.20;;;;;;;-3.68;86.45;101448.62;123319;1109;104287;-83
2023/01/12 00:06:00;;;;;;;27.33;8.23;;;;;;;-3.67;85.69;101450.45;123287;1109;104258;-87
2023/01/12 00:08:33;;;;;;;24.40;7.47;;;;;;;-3.65;85.96;101448.05;123222;1109;104366;-83
2023/01/12 00:11:05;;;;;;;18.87;6.17;;;;;;;-3.64;86.61;101449.88;123234;1109;104261;-84
2023/01/12 00:13:36;;;;;;;25.80;8.47;;;;;;;-3.61;86.05;101443.41;123197;1108;104389;-86
2023/01/12 00:19:03;;;;;;;23.63;7.73;;;;;;;-3.60;85.78;101449.44;123192;1108;104325;-85
2023/01/12 00:21:42;;;;;;;23.00;8.50;;;;;;;-3.61;86.16;101434.82;123437;1108;104294;-79
2023/01/12 00:24:15;;;;;;;24.23;7.63;;;;;;;-3.61;86.67;101425.45;123182;1109;104431;-81
2023/01/12 00:26:50;;;;;;;22.93;7.80;;;;;;;-3.61;86.43;101422.89;123293;1108;104296;-85
2023/01/12 00:29:21;;;;;;;22.23;7.67;;;;;;;-3.59;86.27;101427.28;123301;1108;104399;-85
2023/01/12 00:31:54;;;;;;;21.40;6.73;;;;;;;-3.62;87.05;101409.90;123259;1108;104207;-84
2023/01/12 00:34:28;;;;;;;21.00;7.60;;;;;;;-3.61;86.70;101407.50;123274;1108;104293;-86
2023/01/12 00:37:01;;;;;;;21.43;7.40;;;;;;;-3.62;86.70;101410.80;123273;1109;104303;-84
2023/01/12 00:39:35;;;;;;;20.23;7.20;;;;;;;-3.64;85.81;101404.61;123180;1109;104341;-84
2023/01/12 00:47:47;;;;;;;21.93;7.07;;;;;;;-3.70;86.66;101385.09;123318;1109;104264;-85
2023/01/12 00:50:18;;;;;;;20.97;7.40;;;;;;;-3.68;86.95;101398.98;123086;1109;104233;-84
2023/01/12 00:52:49;;;;;;;17.70;6.10;;;;;;;-3.66;86.63;101400.98;123222;1109;104261;-83
2023/01/12 00:55:21;;;;;;;22.67;6.43;;;;;;;-3.67;86.76;101404.28;123201;1108;104284;-85
2023/01/12 00:57:52;;;;;;;22.37;7.27;;;;;;;-3.67;85.98;101404.28;123238;1109;104731;-85
2023/01/12 01:00:24;;;;;;;21.70;7.63;;;;;;;-3.65;86.33;101395.08;123291;1109;104262;-84
2023/01/12 01:02:55;;;;;;;22.47;7.53;;;;;;;-3.66;86.79;101400.98;123339;1109;104262;-85
2023/01/12 01:05:26;;;;;;;21.37;6.53;;;;;;;-3.65;86.20;101387.38;123211;1108;104265;-84
2023/01/12 01:07:57;;;;;;;25.33;7.03;;;;;;;-3.65;86.49;101389.95;123295;1109;104277;-86
2023/01/12 01:10:28;;;;;;;20.67;6.60;;;;;;;-3.64;86.83;101389.21;123162;1109;104316;-86
2023/01/12 01:13:00;;;;;;;20.10;7.65;;;;;;;-3.62;86.56;101394.50;123168;1108;104322;-86
2023/01/12 01:15:31;;;;;;;22.63;7.57;;;;;;;-3.62;86.39;101391.94;123266;1108;104428;-86
2023/01/12 01:18:02;;;;;;;20.80;7.50;;;;;;;-3.61;86.97;101392.10;123193;1109;104278;-84
2023/01/12 01:20:36;;;;;;;21.93;7.20;;;;;;;-3.57;87.15;101389.86;123209;1109;104249;-84
2023/01/12 01:23:07;;;;;;;20.30;6.97;;;;;;;-3.58;87.03;101393.16;123364;1109;104363;-84
2023/01/12 01:25:43;;;;;;;21.93;6.90;;;;;;;-3.57;86.96;101389.86;123239;1109;104322;-86
2023/01/12 01:28:14;;;;;;;20.70;7.17;;;;;;;-3.57;86.69;101397.56;123238;1108;104328;-85
2023/01/12 01:30:46;;;;;;;21.40;6.93;;;;;;;-3.56;86.93;101396.83;123206;1108;104259;-83
2023/01/12 01:33:17;;;;;;;20.07;7.23;;;;;;;-3.57;86.86;101397.56;123218;1109;104284;-84
2023/01/12 01:35:51;;;;;;;23.67;7.43;;;;;;;-3.54;86.81;101392.76;123212;1108;104370;-85
2023/01/12 01:38:28;;;;;;;19.77;6.70;;;;;;;-3.55;86.49;101396.98;123170;1109;104316;-85
2023/01/12 01:41:00;;;;;;;19.97;7.13;;;;;;;-3.53;86.88;101389.45;123184;1109;104415;-83
2023/01/12 01:43:52;;;;;;;17.60;7.27;;;;;;;-3.54;86.73;101385.95;123179;1109;104296;-84
2023/01/12 01:46:36;;;;;;;23.17;7.97;;;;;;;-3.59;86.21;101370.84;123201;1109;104252;-85
2023/01/12 01:49:29;;;;;;;21.27;7.50;;;;;;;-3.62;86.69;101363.72;123296;1109;104191;-84
2023/01/12 01:52:06;;;;;;;19.67;7.20;;;;;;;-3.65;87.01;101368.53;123180;1109;104264;-84
2023/01/12 01:54:41;;;;;;;20.90;7.20;;;;;;;-3.64;86.56;101371.25;123241;1108;104427;-84
2023/01/12 01:57:14;;;;;;;23.37;8.43;;;;;;;-3.63;86.65;101379.84;123219;1108;104291;-86
2023/01/12 01:59:48;;;;;;;21.90;7.90;;;;;;;-3.59;86.75;101368.28;123208;1108;104272;-83
2023/01/12 02:02:20;;;;;;;19.77;7.00;;;;;;;-3.60;86.67;101357.09;123199;1109;104370;-86
2023/01/12 02:04:51;;;;;;;24.27;8.50;;;;;;;-3.66;87.56;101353.87;123225;1108;104290;-82
2023/01/12 02:07:24;;;;;;;25.70;8.67;;;;;;;-3.69;87.11;101371.53;123314;1108;104238;-82
2023/01/12 02:09:55;;;;;;;22.95;8.10;;;;;;;-3.72;87.43;101366.08;123147;1108;104364;-84
2023/01/12 02:18:14;;;;;;;25.47;8.27;;;;;;;-3.74;86.85;101358.22;123279;1109;104293;-81
2023/01/12 02:20:56;;;;;;;25.35;9.20;;;;;;;-3.70;87.62;101351.75;123286;1109;104169;-85
2023/01/12 02:24:03;;;;;;;20.60;8.15;;;;;;;-3.68;87.49;101356.27;123213;1108;108053;-85
2023/01/12 02:27:09;;;;;;;22.73;8.30;;;;;;;-3.72;86.82;101355.82;123165;1108;104335;-83
2023/01/12 02:30:07;;;;;;;24.57;8.30;;;;;;;-3.79;87.09;101349.11;123117;1108;104294;-82
2023/01/12 02:32:46;;;;;;;25.00;8.47;;;;;;;-3.80;87.25;101353.34;123254;1108;104280;-84
2023/01/12 02:35:26;;;;;;;27.73;9.80;;;;;;;-3.80;87.80;101347.31;123207;1108;104176;-84
2023/01/12 02:38:11;;;;;;;28.77;10.10;;;;;;;-3.78;87.22;101343.24;123292;1108;104242;-84
2023/01/12 02:40:51;;;;;;;23.53;8.70;;;;;;;-3.78;87.76;101340.67;123211;1109;104236;-84
2023/01/12 02:43:29;;;;;;;24.80;9.87;;;;;;;-3.78;87.25;101343.24;123221;1109;104325;-85
2023/01/12 02:46:13;;;;;;;25.67;9.70;;;;;;;-3.78;87.49;101343.24;123270;1109;104258;-86
2023/01/12 02:48:56;;;;;;;18.77;7.30;;;;;;;-3.74;87.84;101347.03;123302;1109;104320;-86
2023/01/12 02:51:34;;;;;;;31.07;9.13;;;;;;;-3.71;87.81;101352.48;123185;1108;104557;-84
2023/01/12 02:54:10;;;;;;;26.27;9.03;;;;;;;-3.69;87.86;101346.78;123169;1108;104258;-82
2023/01/12 02:56:46;;;;;;;32.57;13.47;;;;;;;-3.68;87.85;101348.58;123081;1109;104379;-83
2023/01/12 02:59:21;;;;;;;27.53;11.93;;;;;;;-3.67;87.44;101337.58;123312;1109;104359;-85
2023/01/12 03:01:57;;;;;;;30.50;11.33;;;;;;;-3.64;87.12;101344.70;123177;1108;104261;-82
2023/01/12 03:04:31;;;;;;;29.43;11.00;;;;;;;-3.59;87.89;101348.66;123086;1108;104237;-85
2023/01/12 03:07:35;;;;;;;27.80;10.00;;;;;;;-3.57;87.87;101344.58;123177;1107;104395;-84
2023/01/12 03:10:19;;;;;;;26.47;9.20;;;;;;;-3.54;88.20;101350.03;123011;1108;104281;-85
2023/01/12 03:12:53;;;;;;;30.63;8.20;;;;;;;-3.53;88.33;101343.27;123106;1108;104264;-82
2023/01/12 03:15:25;;;;;;;;;;;;;;;-3.57;87.86;101349.71;123249;1108;104265;-82
2023/01/12 03:18:03;;;;;;;30.40;8.23;;;;;;;-3.61;87.91;101345.92;123181;1107;104283;-83
2023/01/12 03:20:39;;;;;;;25.73;7.93;;;;;;;-3.63;88.24;101347.43;123122;1108;104287;-85
2023/01/12 03:23:16;;;;;;;21.70;7.80;;;;;;;-3.65;87.83;101341.20;123175;1109;104255;-80
2023/01/12 03:25:51;;;;;;;27.40;7.47;;;;;;;-3.66;88.06;101341.98;123350;1109;104260;-83
2023/01/12 03:28:27;;;;;;;25.37;8.57;;;;;;;-3.67;88.30;101340.14;123299;1108;104412;-83
2023/01/12 03:31:03;;;;;;;25.93;8.40;;;;;;;-3.66;88.00;101336.84;123194;1108;104361;-80
2023/01/12 03:33:35;;;;;;;26.80;7.40;;;;;;;-3.65;88.78;101333.51;123222;1109;104261;-84
2023/01/12 03:36:16;;;;;;;26.77;8.83;;;;;;;-3.66;88.19;101334.28;123149;1109;104693;-83
2023/01/12 03:38:58;;;;;;;23.07;7.33;;;;;;;-3.65;88.86;101328.37;123212;1109;104698;-83
2023/01/12 03:41:36;;;;;;;27.87;8.83;;;;;;;-3.64;88.58;101311.35;123190;1108;104406;-84
2023/01/12 03:44:16;;;;;;;30.20;8.95;;;;;;;-3.65;89.03;101312.98;123092;1108;104258;-85
2023/01/12 03:46:53;;;;;;;31.60;8.73;;;;;;;-3.64;88.48;101319.05;123140;1109;104287;-85
2023/01/12 03:49:32;;;;;;;31.23;9.87;;;;;;;-3.61;88.76;101322.83;123209;1108;104367;-85
2023/01/12 03:52:07;;;;;;;28.93;8.63;;;;;;;-3.57;89.03;101320.59;123093;1109;104300;-84
2023/01/12 03:54:41;;;;;;;29.70;8.90;;;;;;;-3.54;88.55;101336.31;123225;1109;104405;-84
2023/01/12 03:57:14;;;;;;;28.50;9.00;;;;;;;-3.52;88.25;101330.60;123280;1109;104264;-85
2023/01/12 03:59:45;;;;;;;24.93;8.57;;;;;;;-3.51;89.00;101318.67;123227;1108;104310;-84
2023/01/12 04:02:16;;;;;;;28.97;8.90;;;;;;;-3.48;88.19;101317.33;123143;1108;104299;-83
2023/01/12 04:04:48;;;;;;;29.00;9.90;;;;;;;-3.48;88.12;101327.59;123187;1109;104188;-84
2023/01/12 04:07:19;;;;;;;28.40;9.07;;;;;;;-3.48;87.87;101330.16;123188;1109;104871;-84
2023/01/12 04:09:50;;;;;;;29.23;9.83;;;;;;;-3.47;88.78;101333.65;123080;1109;104271;-84
2023/01/12 04:12:21;;;;;;;31.63;9.23;;;;;;;-3.45;89.03;101327.02;123235;1109;104230;-84
2023/01/12 04:14:52;;;;;;;24.40;8.03;;;;;;;-3.42;88.76;101334.13;123146;1109;104296;-84
2023/01/12 04:17:24;;;;;;;26.20;8.70;;;;;;;-3.42;88.78;101332.46;123061;1109;104194;-85
2023/01/12 04:19:55;;;;;;;26.70;9.20;;;;;;;-3.43;88.23;101320.37;123238;1109;104475;-85
2023/01/12 04:22:45;;;;;;;29.87;8.67;;;;;;;-3.48;89.31;101306.16;123074;1108;104380;-83
2023/01/12 04:25:18;;;;;;;30.50;8.53;;;;;;;-3.50;88.42;101312.80;123149;1108;104271;-85
2023/01/12 04:27:57;;;;;;;28.00;8.80;;;;;;;-3.50;88.79;101312.80;123058;1109;104398;-85
2023/01/12 04:30:30;;;;;;;29.10;8.73;;;;;;;-3.47;88.82;101311.45;123190;1108;104214;-83
2023/01/12 04:33:06;;;;;;;29.20;8.60;;;;;;;-3.45;89.49;101309.95;123133;1109;104379;-85
2023/01/12 04:35:38;;;;;;;28.50;9.67;;;;;;;-3.42;89.43;101321.30;123279;1108;103288;-84
2023/01/12 04:38:09;;;;;;;28.77;8.83;;;;;;;-3.41;88.84;101311.20;123476;1108;104246;-85
2023/01/12 04:40:41;;;;;;;28.87;8.83;;;;;;;-3.38;88.55;101313.15;123380;1109;104290;-86
2023/01/12 04:43:12;;;;;;;31.43;9.67;;;;;;;-3.36;89.47;101317.70;123162;1108;104366;-85
2023/01/12 04:45:43;;;;;;;29.90;9.50;;;;;;;-3.33;89.24;101319.69;123158;1108;104377;-83
2023/01/12 04:48:18;;;;;;;28.03;8.50;;;;;;;-3.32;89.62;101319.85;123227;1109;104294;-83
2023/01/12 04:50:49;;;;;;;27.03;9.03;;;;;;;-3.29;89.31;101309.91;123189;1108;104274;-84
2023/01/12 04:53:23;;;;;;;32.23;9.40;;;;;;;-3.26;89.34;101302.52;123177;1109;104290;-82
2023/01/12 04:55:54;;;;;;;31.23;9.18;;;;;;;-3.26;88.78;101312.78;123028;1109;104245;-79
2023/01/12 04:58:26;;;;;;;28.80;9.50;;;;;;;-3.24;89.06;101307.81;122746;1108;104382;-79
2023/01/12 05:00:57;;;;;;;31.17;9.87;;;;;;;-3.23;89.12;101313.84;122887;1109;104399;-80
2023/01/12 05:03:28;;;;;;;33.30;9.40;;;;;;;-3.20;89.07;101315.06;122793;1109;104274;-80
2023/01/12 05:06:01;;;;;;;36.80;9.17;;;;;;;-3.19;89.82;101316.89;122801;1108;104348;-79
2023/01/12 05:11:24;;;;;;;32.90;8.83;;;;;;;-3.17;89.46;101315.37;122827;1107;104441;-78
2023/01/12 05:13:56;;;;;;;23.90;8.37;;;;;;;-3.17;89.10;101317.94;122761;1108;104290;-79
2023/01/12 05:16:27;;;;;;;27.03;8.97;;;;;;;-3.15;89.07;101310.40;122848;1109;104440;-80
2023/01/12 05:18:58;;;;;;;30.45;8.95;;;;;;;-3.13;89.86;101320.09;122788;1109;104305;-81
2023/01/12 05:21:30;;;;;;;30.10;9.23;;;;;;;-3.12;89.01;101318.42;123101;1108;104242;-80
2023/01/12 05:24:01;;;;;;;23.93;7.20;;;;;;;-3.12;89.73;101328.69;123011;1108;104415;-81
2023/01/12 05:26:32;;;;;;;23.37;8.03;;;;;;;-3.14;89.91;101320.83;122859;1109;104374;-79
2023/01/12 05:29:03;;;;;;;27.87;9.00;;;;;;;-3.13;88.90;101324.30;122895;1109;104287;-79
2023/01/12 05:31:35;;;;;;;25.87;8.73;;;;;;;-3.15;89.46;101334.41;122935;1108;104364;-79
2023/01/12 05:34:07;;;;;;;26.00;7.63;;;;;;;-3.14;88.64;101331.09;122957;1109;104290;-79
2023/01/12 05:36:38;;;;;;;22.63;8.40;;;;;;;-3.11;89.71;101335.66;123090;1108;104332;-80
2023/01/12 05:39:09;;;;;;;27.77;8.70;;;;;;;-3.09;89.26;101326.44;123143;1109;104297;-79
2023/01/12 05:43:48;;;;;;;23.43;8.30;;;;;;;-3.12;89.38;101332.16;122989;1109;104373;-79
2023/01/12 05:44:33;;;;;;;24.83;8.30;;;;;;;-3.12;89.52;101344.09;123180;1108;104258;-79
2023/01/12 05:47:04;;;;;;;26.40;8.20;;;;;;;-3.10;89.29;101347.72;123180;1109;104242;-79
2023/01/12 05:49:35;;;;;;;25.23;8.97;;;;;;;-3.09;89.61;101344.41;123176;1109;104392;-79
2023/01/12 05:52:06;;;;;;;26.17;7.70;;;;;;;-3.05;89.79;101349.13;123138;1109;104185;-78
2023/01/12 05:54:39;;;;;;;27.00;8.27;;;;;;;-3.05;89.78;101349.13;123063;1109;104287;-81
2023/01/12 05:57:10;;;;;;;25.83;8.50;;;;;;;-3.03;89.68;101355.31;123144;1108;104261;-80
2023/01/12 05:59:41;;;;;;;22.97;8.10;;;;;;;-2.99;89.16;101353.96;123189;1109;104191;-79
2023/01/12 06:02:16;;;;;;;28.47;8.70;;;;;;;-2.97;89.40;101361.09;123058;1108;104406;-80
2023/01/12 06:04:47;;;;;;;27.30;9.35;;;;;;;-2.93;89.21;101357.16;123092;1109;104335;-81
2023/01/12 06:07:19;;;;;;;25.40;9.13;;;;;;;-2.92;89.03;101356.42;123329;1109;104188;-80
2023/01/12 06:09:50;;;;;;;30.83;9.87;;;;;;;-2.92;88.91;101359.89;123525;1109;104663;-77
2023/01/12 06:15:12;;;;;;;33.20;10.67;;;;;;;-2.91;89.33;101356.58;123611;1109;104271;-77
2023/01/12 06:17:43;;;;;;;29.75;10.10;;;;;;;-2.88;89.88;101353.44;123354;1108;104246;-78
2023/01/12 06:20:16;;;;;;;35.45;11.50;;;;;;;-2.86;89.54;101351.02;123519;1108;104261;-79
2023/01/12 06:22:47;;;;;;;30.47;11.00;;;;;;;-2.84;88.88;101349.51;123649;1109;104262;-78
2023/01/12 06:25:20;;;;;;;31.47;10.93;;;;;;;-2.84;88.90;101346.94;123824;1108;104261;-79
2023/01/12 06:27:51;;;;;;;32.30;10.53;;;;;;;-2.85;89.28;101346.05;123636;1108;104316;-80
2023/01/12 06:30:23;;;;;;;34.53;12.60;;;;;;;-2.78;89.57;101345.00;123805;1109;104362;-78
2023/01/12 06:32:54;;;;;;;35.85;11.50;;;;;;;-2.73;89.23;101346.37;123754;1109;104310;-79
2023/01/12 06:35:26;;;;;;;32.50;12.43;;;;;;;-2.70;89.96;101351.81;124084;1109;104195;-79
2023/01/12 06:37:59;;;;;;;31.40;12.00;;;;;;;-2.67;89.68;101333.25;124119;1108;104230;-77
2023/01/12 06:40:33;;;;;;;31.63;12.20;;;;;;;-2.69;89.41;101335.66;124351;1108;102897;-77
2023/01/12 06:43:07;;;;;;;33.65;11.80;;;;;;;-2.69;90.27;101338.23;124398;1108;104207;-78
2023/01/12 06:45:40;;;;;;;32.63;10.43;;;;;;;-2.67;90.17;101338.39;124176;1107;102438;-78
2023/01/12 06:48:15;;;;;;;28.03;9.83;;;;;;;-2.63;89.57;101345.66;123907;1109;104027;-78
2023/01/12 06:50:46;;;;;;;24.37;9.10;;;;;;;-2.61;90.70;101352.75;124080;1109;104252;-79
2023/01/12 06:53:19;;;;;;;26.27;9.67;;;;;;;-2.56;90.44;101350.66;123729;1108;104335;-77
2023/01/12 06:55:51;;;;;;;24.10;8.33;;;;;;;-2.49;90.41;101349.60;124075;1108;104277;-79
2023/01/12 06:58:25;;;;;;;27.70;9.27;;;;;;;-2.46;90.14;101342.20;124236;1108;104191;-76
2023/01/12 07:01:01;;;;;;;30.90;10.30;;;;;;;-2.44;90.97;101348.43;123989;1108;104303;-79
2023/01/12 07:03:35;;;;;;;28.43;9.57;;;;;;;-2.39;90.56;101354.94;124357;1108;102406;-79
2023/01/12 07:06:07;;;;;;;25.37;9.27;;;;;;;-2.37;90.28;101351.77;124375;1109;103825;-77
2023/01/12 07:08:39;;;;;;;28.37;9.57;;;;;;;-2.32;90.63;101354.81;124335;1108;104149;-77
2023/01/12 07:11:13;;;;;;;28.07;9.37;;;;;;;-2.31;90.43;101358.27;124393;1109;103478;-77
2023/01/12 07:13:45;;;;;;;32.05;10.20;;;;;;;-2.27;90.80;101366.45;124403;1108;104258;-79
2023/01/12 07:16:16;;;;;;;29.37;11.17;;;;;;;-2.18;90.59;101362.23;124008;1108;102456;-78
2023/01/12 07:18:49;;;;;;;32.37;10.10;;;;;;;-2.11;89.99;101360.27;123995;1108;104187;-79
2023/01/12 07:21:23;;;;;;;29.97;11.00;;;;;;;-2.10;90.42;101364.64;124187;1108;104256;-78
2023/01/12 07:23:59;;;;;;;27.67;9.87;;;;;;;-2.08;89.70;101373.44;124129;1108;104315;-78
2023/01/12 07:26:31;;;;;;;28.60;11.60;;;;;;;-2.05;89.70;101366.03;124566;1109;104089;-79
2023/01/12 07:29:07;;;;;;;28.37;11.77;;;;;;;-1.97;90.64;101366.80;124292;1108;103034;-76
2023/01/12 07:31:40;;;;;;;26.47;10.60;;;;;;;-1.93;89.74;101372.40;123984;1109;104087;-77
2023/01/12 07:34:12;;;;;;;29.43;11.63;;;;;;;-1.87;90.63;101375.58;123824;1108;104270;-76
2023/01/12 07:36:43;;;;;;;25.57;11.10;;;;;;;-1.77;89.69;101377.39;124034;1109;104178;-79
2023/01/12 07:39:15;;;;;;;33.83;11.00;;;;;;;-1.68;90.09;101378.30;123929;1109;102456;-76
2023/01/12 07:44:37;;;;;;;32.00;11.77;;;;;;;-1.62;89.49;101378.00;123916;1109;102841;-76
2023/01/12 07:47:08;;;;;;;30.07;11.87;;;;;;;-1.58;89.89;101374.95;124102;1109;103204;-76
2023/01/12 07:49:40;;;;;;;30.50;11.40;;;;;;;-1.50;89.92;101367.98;124151;1108;104258;-79
2023/01/12 07:52:13;;;;;;;33.90;12.63;;;;;;;-1.43;90.67;101370.41;124539;1109;104156;-76
2023/01/12 07:54:45;;;;;;;24.37;11.27;;;;;;;-1.40;90.37;101364.63;124265;1108;104191;-77
2023/01/12 07:57:17;;;;;;;31.80;12.37;;;;;;;-1.41;90.04;101360.25;124076;1109;104740;-77
2023/01/12 07:59:49;;;;;;;34.50;12.87;;;;;;;-1.37;89.43;101368.42;124173;1108;104238;-78
2023/01/12 08:02:20;;;;;;;34.57;12.80;;;;;;;-1.35;90.10;101366.00;124289;1108;104197;-80
2023/01/12 08:04:56;;;;;;;34.65;14.20;;;;;;;-1.28;90.39;101370.97;124333;1107;102587;-78
2023/01/12 08:07:31;;;;;;;33.50;14.13;;;;;;;-1.25;89.09;101373.84;124384;1108;101998;-79
2023/01/12 08:10:02;;;;;;;30.05;12.13;;;;;;;-1.28;89.51;101371.89;125481;1108;102923;-78
2023/01/12 08:12:34;;;;;;;31.55;13.00;;;;;;;-1.35;89.59;101381.45;124034;1108;104197;-78
2023/01/12 08:15:07;;;;;;;33.53;14.27;;;;;;;-1.38;89.48;101382.05;124123;1108;104268;-78
2023/01/12 08:17:44;;;;;;;33.50;12.93;;;;;;;-1.34;90.12;101379.02;125392;1108;101596;-76
2023/01/12 08:20:22;;;;;;;37.57;12.87;;;;;;;-1.30;89.39;101373.39;125524;1108;102309;-78
2023/01/12 08:22:58;;;;;;;34.73;12.57;;;;;;;-1.26;89.95;101379.77;125592;1108;102018;-76
2023/01/12 08:25:37;;;;;;;36.03;13.57;;;;;;;-1.28;89.81;101383.84;125467;1107;102542;-79
2023/01/12 08:28:12;;;;;;;34.10;13.13;;;;;;;-1.28;89.02;101389.92;125426;1108;102701;-75
2023/01/12 08:30:48;;;;;;;30.47;12.10;;;;;;;-1.27;89.75;101389.14;125555;1107;110059;-77
2023/01/12 08:33:23;;;;;;;35.40;13.53;;;;;;;-1.30;89.39;101385.38;125527;1109;101815;-78
2023/01/12 08:35:59;;;;;;;32.70;13.47;;;;;;;-1.31;90.34;101387.05;125525;1108;102848;-77
2023/01/12 08:38:32;;;;;;;34.97;11.80;;;;;;;-1.25;89.52;101391.86;125485;1107;102408;-77
2023/01/12 08:44:07;;;;;;;32.97;12.23;;;;;;;-1.21;89.22;101393.98;125432;1108;102917;-80
2023/01/12 08:46:40;;;;;;;29.55;13.22;;;;;;;-1.17;89.32;101388.39;125472;1108;102876;-76
2023/01/12 08:49:19;;;;;;;35.03;12.90;;;;;;;-1.15;89.35;101389.43;125534;1107;102501;-78
2023/01/12 08:51:55;;;;;;;34.97;11.30;;;;;;;-1.11;89.78;101385.47;125574;1107;101461;-79
2023/01/12 08:54:28;;;;;;;27.70;10.20;;;;;;;-1.08;89.62;101385.77;125671;1107;102674;-78
2023/01/12 08:57:03;;;;;;;25.67;10.37;;;;;;;-1.09;89.96;101374.56;125646;1108;102314;-79
2023/01/12 08:59:39;;;;;;;27.63;10.37;;;;;;;-1.01;89.17;101379.52;125581;1106;102498;-77
2023/01/12 09:02:12;;;;;;;26.90;10.03;;;;;;;-0.99;89.44;101378.92;125471;1108;102630;-79
2023/01/12 09:04:47;;;;;;;33.28;11.15;;;;;;;-1.02;89.96;101385.47;125478;1107;102755;-79
2023/01/12 09:07:19;;;;;;;28.12;10.20;;;;;;;-1.02;89.55;101376.05;125438;1108;101919;-77
2023/01/12 09:09:50;;;;;;;26.87;10.80;;;;;;;-0.98;89.77;101372.09;125585;1107;102251;-78
2023/01/12 09:12:25;;;;;;;35.20;13.45;;;;;;;-0.96;89.95;101380.90;125562;1108;102663;-78
2023/01/12 09:14:57;;;;;;;32.13;13.33;;;;;;;-0.95;89.62;101383.63;124655;1109;104475;-78
2023/01/12 09:17:28;;;;;;;35.73;12.90;;;;;;;-0.95;89.66;101378.47;123873;1109;104303;-79
2023/01/12 09:20:00;;;;;;;35.40;14.10;;;;;;;-0.95;89.57;101381.05;123895;1108;104290;-78
2023/01/12 09:22:33;;;;;;;35.67;14.67;;;;;;;-0.94;89.96;101374.21;124123;1108;104017;-79
2023/01/12 09:25:05;;;;;;;31.90;12.93;;;;;;;-0.93;89.09;101371.78;124124;1109;104249;-77
2023/01/12 09:27:39;;;;;;;35.70;13.93;;;;;;;-0.87;90.09;101371.47;124417;1109;102550;-77
2023/01/12 09:30:16;;;;;;;34.53;13.03;;;;;;;-0.86;89.54;101370.69;124418;1108;104230;-78
2023/01/12 09:32:48;;;;;;;30.90;11.30;;;;;;;-0.88;89.20;101374.80;124368;1109;102208;-79
2023/01/12 09:35:20;;;;;;;30.63;11.07;;;;;;;-0.93;88.99;101370.89;124465;1107;102993;-77
2023/01/12 09:37:56;;;;;;;37.77;13.33;;;;;;;-0.94;89.22;101374.21;125302;1109;102303;-77
2023/01/12 09:40:31;;;;;;;33.07;13.17;;;;;;;-0.84;90.23;101370.83;125529;1107;102130;-77
2023/01/12 09:48:42;;;;;;;33.70;13.13;;;;;;;-0.79;89.97;101365.36;125630;1107;102230;-79
2023/01/12 09:51:20;;;;;;;31.63;14.30;;;;;;;-0.84;88.34;101361.45;125793;1107;101510;-76
2023/01/12 09:53:52;;;;;;;35.43;15.70;;;;;;;-0.93;88.94;101358.00;125671;1107;103191;-78
2023/01/12 09:56:38;;;;;;;36.70;17.20;;;;;;;-0.91;89.06;101359.94;125541;1108;102607;-77
2023/01/12 09:59:42;;;;;;;38.63;18.93;;;;;;;-0.86;89.60;101355.22;125774;1100;102904;-78
2023/01/12 10:02:26;;;;;;;36.63;17.33;;;;;;;-0.81;90.03;101361.75;125552;1108;102237;-77
2023/01/12 10:05:07;;;;;;;35.13;14.90;;;;;;;-0.80;88.94;101357.48;125657;1107;102155;-79
2023/01/12 10:07:45;;;;;;;33.43;15.03;;;;;;;-0.79;89.34;101354.16;125599;1107;103151;-80
2023/01/12 10:10:38;;;;;;;44.43;19.60;;;;;;;-0.75;89.02;101352.02;125516;1107;102108;-83
2023/01/12 10:13:25;;;;;;;43.60;19.43;;;;;;;-0.73;89.03;101347.01;125539;1107;101995;-81
2023/01/12 10:16:08;;;;;;;33.23;15.67;;;;;;;-0.78;89.62;101336.27;125622;1109;102304;-79
2023/01/12 10:18:45;;;;;;;34.63;16.93;;;;;;;-0.82;89.40;101334.15;125684;1109;101382;-78
2023/01/12 10:21:23;;;;;;;34.43;13.77;;;;;;;-0.82;88.75;101335.83;125935;1099;102455;-78
2023/01/12 10:27:15;;;;;;;31.77;12.83;;;;;;;-0.84;88.78;101337.33;125656;1104;103326;-76
2023/01/12 10:30:02;;;;;;;32.90;14.87;;;;;;;-0.84;89.80;101330.53;125602;1108;102364;-79
2023/01/12 10:32:55;;;;;;;34.63;15.10;;;;;;;-0.89;89.05;101326.59;125520;1108;102517;-79
2023/01/12 10:36:00;;;;;;;35.40;15.07;;;;;;;-0.98;89.06;101326.65;125576;1108;102081;-78
2023/01/12 10:39:02;;;;;;;41.50;16.07;;;;;;;-1.03;88.17;101319.23;125647;1106;102763;-82
2023/01/12 10:41:47;;;;;;;41.40;17.87;;;;;;;-1.05;89.26;101319.09;125636;1107;102098;-82
2023/01/12 10:44:21;;;;;;;37.90;16.27;;;;;;;-0.99;88.98;101321.34;125706;1108;101380;-82
2023/01/12 10:47:26;;;;;;;37.83;16.23;;;;;;;-0.91;89.30;101318.72;125724;1108;102084;-80
2023/01/12 10:50:25;;;;;;;34.03;14.30;;;;;;;-0.89;89.74;101317.97;125655;1108;101951;-79
2023/01/12 10:53:02;;;;;;;30.83;12.67;;;;;;;-0.89;88.45;101303.40;125622;1108;102576;-79
2023/01/12 10:55:39;;;;;;;41.20;14.17;;;;;;;-0.86;89.76;101305.37;125680;1109;101974;-79
2023/01/12 10:58:23;;;;;;;33.53;14.00;;;;;;;-0.81;89.68;101301.55;125585;1107;101916;-78
2023/01/12 11:00:58;;;;;;;36.10;14.95;;;;;;;-0.75;88.81;101302.13;125614;1108;102160;-79
2023/01/12 11:03:37;;;;;;;34.17;14.40;;;;;;;-0.73;89.80;101293.78;124919;1109;102029;-79
2023/01/12 11:06:26;;;;;;;31.30;13.30;;;;;;;-0.73;89.55;101298.93;124466;1108;102320;-78
2023/01/12 11:08:59;;;;;;;40.00;16.37;;;;;;;-0.72;89.42;101289.52;124514;1108;104194;-79
2023/01/12 11:11:35;;;;;;;34.63;13.37;;;;;;;-0.75;88.70;101290.16;124450;1109;103810;-82
2023/01/12 11:14:18;;;;;;;32.50;12.73;;;;;;;-0.73;88.62;101295.46;124374;1109;104287;-79
2023/01/12 11:17:02;;;;;;;33.97;13.23;;;;;;;-0.75;88.58;101296.97;124422;1109;102459;-78
2023/01/12 11:19:39;;;;;;;36.27;14.60;;;;;;;-0.67;88.96;101287.37;124580;1108;102678;-77
2023/01/12 11:22:17;;;;;;;35.23;13.40;;;;;;;-0.57;90.00;101292.62;124501;1108;103381;-81
2023/01/12 11:24:56;;;;;;;35.27;13.60;;;;;;;-0.51;88.93;101276.80;124473;1109;102272;-78
2023/01/12 11:27:34;;;;;;;39.10;13.93;;;;;;;-0.49;88.68;101277.87;124557;1109;102295;-79
2023/01/12 11:30:17;;;;;;;35.43;12.97;;;;;;;-0.51;88.14;101272.57;124418;1109;102768;-76
2023/01/12 11:32:57;;;;;;;33.03;13.73;;;;;;;-0.52;88.48;101268.17;124440;1109;104241;-77
2023/01/12 11:35:40;;;;;;;33.07;12.33;;;;;;;-0.53;88.29;101262.87;124404;1109;104306;-77
2023/01/12 11:38:19;;;;;;;33.33;13.32;;;;;;;-0.51;88.71;101249.37;124432;1109;102808;-78
2023/01/12 11:40:52;;;;;;;31.20;11.70;;;;;;;-0.55;88.39;101252.41;124689;1109;102265;-76
2023/01/12 11:46:34;;;;;;;32.90;12.60;;;;;;;-0.56;89.29;101240.31;124381;1109;104224;-77
2023/01/12 11:49:13;;;;;;;28.40;11.67;;;;;;;-0.50;88.24;101235.69;124468;1108;102533;-76
2023/01/12 11:51:49;;;;;;;30.60;11.73;;;;;;;-0.42;88.57;101231.23;124550;1108;102650;-79
2023/01/12 11:54:23;;;;;;;32.57;11.43;;;;;;;-0.31;89.25;101232.21;124632;1109;103021;-78
2023/01/12 11:57:18;;;;;;;26.97;10.60;;;;;;;-0.28;89.50;101235.06;124505;1109;104230;-78
2023/01/12 12:00:02;;;;;;;31.30;11.23;;;;;;;-0.38;87.84;101239.39;124396;1109;103254;-80
2023/01/12 12:02:54;;;;;;;26.73;11.10;;;;;;;-0.40;88.29;101235.77;124567;1108;102553;-79
2023/01/12 12:05:38;;;;;;;26.60;10.57;;;;;;;-0.46;88.12;101229.16;124281;1109;110345;-80
2023/01/12 12:08:24;;;;;;;27.70;9.70;;;;;;;-0.48;88.48;101229.02;124530;1109;104194;-78
2023/01/12 12:11:01;;;;;;;28.77;10.43;;;;;;;-0.55;88.37;101229.22;124534;1109;104302;-80
2023/01/12 12:13:42;;;;;;;32.97;10.93;;;;;;;-0.59;88.25;101235.77;124467;1109;104151;-78
2023/01/12 12:16:22;;;;;;;25.33;10.13;;;;;;;-0.69;87.56;101237.36;124455;1109;102349;-79